createdAt,value
2023-06-15T00:04:49.571Z,74
2023-06-15T00:14:51.667Z,75
2023-06-15T00:24:54.021Z,79
2023-06-15T00:34:56.610Z,81
2023-06-15T00:44:58.862Z,82
2023-06-15T01:05:02.957Z,84
2023-06-15T01:25:07.821Z,84
2023-06-15T01:45:12.563Z,85
2023-06-15T01:55:14.871Z,88
2023-06-15T02:05:16.882Z,87
2023-06-15T02:15:19.365Z,87
2023-06-15T02:25:21.568Z,88
2023-06-15T02:28:16.078Z,88
2023-06-15T02:35:33.132Z,88
2023-06-15T02:45:35.006Z,89
2023-06-15T02:55:36.878Z,90
2023-06-15T03:05:38.794Z,90
2023-06-15T03:15:40.972Z,92
2023-06-15T03:25:43.328Z,93
2023-06-15T03:35:45.460Z,94
2023-06-15T03:45:47.633Z,95
2023-06-15T03:55:49.748Z,94
2023-06-15T04:05:51.738Z,95
2023-06-15T04:15:54.027Z,96
2023-06-15T04:25:55.914Z,97
2023-06-15T04:35:57.857Z,94
2023-06-15T04:46:00.413Z,93
2023-06-15T04:56:02.666Z,91
2023-06-15T05:06:05.262Z,88
2023-06-15T05:16:07.154Z,88
2023-06-15T05:26:20.940Z,87
2023-06-15T05:46:13.628Z,84
2023-06-15T06:06:17.857Z,82
2023-06-15T06:36:24.350Z,74
2023-06-15T06:46:26.057Z,72
2023-06-15T06:56:28.261Z,73
2023-06-15T09:57:05.809Z,30
2023-06-15T10:07:07.930Z,31
2023-06-15T10:27:12.024Z,32
2023-06-15T10:37:13.741Z,31
2023-06-15T10:47:16.086Z,30
2023-06-15T10:57:18.480Z,30
2023-06-15T11:07:20.224Z,28
2023-06-15T11:17:22.072Z,27
2023-06-15T11:37:26.748Z,27
2023-06-15T11:57:31.177Z,26
2023-06-15T12:07:37.655Z,26
2023-06-15T12:17:36.241Z,25
2023-06-15T12:27:37.954Z,26
2023-06-15T12:37:49.893Z,26
2023-06-15T12:47:41.801Z,26
2023-06-15T12:57:43.883Z,27
2023-06-15T13:07:46.028Z,27
2023-06-15T13:17:47.720Z,26
2023-06-15T13:27:49.422Z,24
2023-06-15T13:37:51.130Z,27
2023-06-15T13:47:53.039Z,27
2023-06-15T13:57:55.203Z,26
2023-06-15T14:17:59.529Z,28
2023-06-15T15:08:11.065Z,26
2023-06-15T15:28:14.900Z,24
2023-06-15T15:48:19.272Z,26
2023-06-15T16:08:23.610Z,24
2023-06-15T16:18:25.587Z,26
2023-06-15T16:28:27.261Z,26
2023-06-15T16:38:29.346Z,25
2023-06-15T16:48:31.922Z,25
2023-06-15T16:58:34.574Z,25
2023-06-15T17:08:36.695Z,24
2023-06-15T17:18:38.773Z,25
2023-06-15T17:28:41.139Z,24
2023-06-15T17:48:46.361Z,25
2023-06-15T17:58:48.887Z,26
2023-06-15T18:08:51.469Z,26
2023-06-15T18:18:53.435Z,26
2023-06-15T18:28:55.946Z,27
2023-06-15T18:38:57.943Z,28
2023-06-15T18:49:00.330Z,29
2023-06-15T18:59:02.070Z,31
2023-06-15T19:09:04.255Z,32
2023-06-15T19:19:06.136Z,33
2023-06-15T19:29:08.552Z,33
2023-06-15T19:39:11.129Z,34
2023-06-15T19:49:12.949Z,36
2023-06-15T19:59:15.534Z,37
2023-06-15T20:09:17.686Z,41
2023-06-15T20:19:19.447Z,43
2023-06-15T20:29:21.573Z,44
2023-06-15T20:39:23.266Z,44
2023-06-15T20:49:25.632Z,45
2023-06-15T20:59:27.811Z,45
2023-06-15T21:09:30.112Z,43
2023-06-15T21:19:32.671Z,42
2023-06-15T21:29:34.774Z,41
2023-06-15T21:39:37.027Z,41
2023-06-15T21:49:38.878Z,41
2023-06-15T21:59:41.205Z,41
2023-06-15T22:09:42.991Z,42
2023-06-15T22:19:44.654Z,44
2023-06-15T22:29:46.949Z,45
2023-06-15T22:39:48.835Z,46
2023-06-15T22:49:50.563Z,47
2023-06-15T22:59:52.968Z,48
2023-06-15T23:09:55.597Z,50
2023-06-15T23:19:57.360Z,51
2023-06-15T23:29:59.338Z,51
2023-06-15T23:40:02.007Z,51
2023-06-15T23:50:03.776Z,52
